Time;durP1;ratioP1;P1;durP2;ratioP2;P2;SDS_P1;SDS_P2;PMS_P1;PMS_P2;Temp;Humidity;BMP_temperature;BMP_pressure;BME280_temperature;BME280_humidity;BME280_pressure;Samples;Min_cycle;Max_cycle;Signal;HPM_P1;HPM_P2
2023/12/01 00:00:54;;;;;;;64.05;37.40;;;;;;;-1.46;100.00;100204.59;5087835;28;20110;-67
2023/12/01 00:03:19;;;;;;;63.17;38.35;;;;;;;-1.45;100.00;100209.81;5089698;27;20076;-66
2023/12/01 00:05:45;;;;;;;66.32;38.28;;;;;;;-1.37;100.00;100212.34;5089319;28;20027;-67
2023/12/01 00:08:10;;;;;;;62.40;36.60;;;;;;;-1.37;100.00;100204.53;5084672;28;20088;-67
2023/12/01 00:10:35;;;;;;;66.53;40.10;;;;;;;-1.35;100.00;100214.03;5087426;28;20493;-67
2023/12/01 00:13:01;;;;;;;66.10;38.42;;;;;;;-1.29;100.00;100229.66;5088372;28;20490;-67
2023/12/01 00:15:27;;;;;;;66.20;40.28;;;;;;;-1.28;100.00;100220.91;5085317;28;20046;-67
2023/12/01 00:17:52;;;;;;;64.97;38.55;;;;;;;-1.21;100.00;100231.28;5086636;28;20281;-67
2023/12/01 00:20:18;;;;;;;66.60;38.88;;;;;;;-1.22;100.00;100225.19;5100115;28;20363;-67
2023/12/01 00:22:44;;;;;;;60.60;37.40;;;;;;;-1.24;100.00;100216.53;5087505;28;20494;-67
2023/12/01 00:25:09;;;;;;;60.38;36.92;;;;;;;-1.19;100.00;100226.91;5095155;28;20153;-67
2023/12/01 00:27:35;;;;;;;58.75;35.40;;;;;;;-1.22;100.00;100225.19;5087716;28;20020;-67
2023/12/01 00:30:00;;;;;;;57.63;35.17;;;;;;;-1.25;100.00;100225.25;5084641;27;20092;-67
2023/12/01 00:32:25;;;;;;;59.28;36.72;;;;;;;-1.22;100.00;100222.59;5097200;28;20398;-67
2023/12/01 00:34:51;;;;;;;60.85;35.55;;;;;;;-1.23;100.00;100223.47;5085375;28;20028;-67
2023/12/01 00:37:16;;;;;;;61.35;36.15;;;;;;;-1.21;100.00;100223.44;5084778;28;20387;-67
2023/12/01 00:39:42;;;;;;;60.40;36.95;;;;;;;-1.18;100.00;100236.47;5088735;28;20039;-67
2023/12/01 00:42:07;;;;;;;62.55;37.83;;;;;;;-1.15;100.00;100231.22;5091543;28;20396;-68
2023/12/01 00:44:32;;;;;;;62.83;36.90;;;;;;;-1.14;100.00;100238.16;5085061;28;20077;-67
2023/12/01 00:46:58;;;;;;;60.03;36.25;;;;;;;-1.13;100.00;100232.94;5092823;28;20399;-67
2023/12/01 00:49:23;;;;;;;66.10;38.00;;;;;;;-1.13;100.00;100246.00;5087347;28;20034;-68
2023/12/01 00:51:48;;;;;;;60.40;36.13;;;;;;;-1.07;100.00;100240.69;5089849;28;20073;-67
2023/12/01 00:54:14;;;;;;;61.15;37.22;;;;;;;-1.09;100.00;100237.19;5089289;28;20109;-67
2023/12/01 00:56:39;;;;;;;61.53;36.88;;;;;;;-1.09;100.00;100252.88;5092718;28;20430;-67
2023/12/01 00:59:05;;;;;;;60.30;36.63;;;;;;;-1.11;100.00;100244.22;5090598;28;20500;-68
2023/12/01 01:01:30;;;;;;;61.83;36.65;;;;;;;-1.13;100.00;100256.44;5098201;28;20220;-67
2023/12/01 01:03:57;;;;;;;61.67;36.92;;;;;;;-1.14;100.00;100262.53;5089214;28;20081;-67
2023/12/01 01:06:22;;;;;;;65.18;37.42;;;;;;;-1.20;100.00;100261.75;5086760;28;20035;-67
2023/12/01 01:08:48;;;;;;;65.20;37.72;;;;;;;-1.18;100.00;100252.13;5090163;28;20030;-68
2023/12/01 01:11:13;;;;;;;59.42;35.42;;;;;;;-1.21;100.00;100262.59;5089513;28;20132;-68
2023/12/01 01:13:38;;;;;;;64.28;37.85;;;;;;;-1.20;100.00;100266.97;5092371;28;20081;-67
2023/12/01 01:16:08;;;;;;;64.70;37.78;;;;;;;-1.26;100.00;100265.28;5088119;28;20028;-67
2023/12/01 01:18:33;;;;;;;67.25;39.15;;;;;;;-1.29;100.00;100271.41;5088887;28;20036;-67
2023/12/01 01:20:59;;;;;;;67.95;39.28;;;;;;;-1.28;100.00;100272.28;5084967;28;20050;-67
2023/12/01 01:23:24;;;;;;;69.50;38.40;;;;;;;-1.30;100.00;100266.19;5085473;28;20362;-67
2023/12/01 01:25:50;;;;;;;73.32;40.72;;;;;;;-1.28;100.00;100267.06;5084710;28;20093;-67
2023/12/01 01:28:16;;;;;;;70.18;40.25;;;;;;;-1.30;100.00;100277.50;5084858;28;20111;-67
2023/12/01 01:30:41;;;;;;;72.15;40.05;;;;;;;-1.27;100.00;100280.09;5084263;28;20091;-67
2023/12/01 01:33:07;;;;;;;68.68;40.22;;;;;;;-1.33;100.00;100268.88;5101475;28;20027;-67
2023/12/01 01:35:32;;;;;;;73.53;40.83;;;;;;;-1.30;100.00;100280.09;5097821;28;20024;-70
2023/12/01 01:37:57;;;;;;;68.07;39.70;;;;;;;-1.34;100.00;100273.22;5083195;28;20056;-68
2023/12/01 01:40:23;;;;;;;66.80;37.63;;;;;;;-1.42;100.00;100274.16;5081424;28;20028;-71
2023/12/01 01:42:48;;;;;;;69.35;39.97;;;;;;;-1.44;100.00;100281.16;5089407;28;20039;-68
2023/12/01 01:45:13;;;;;;;68.38;39.03;;;;;;;-1.46;100.00;100277.69;5093443;28;20587;-69
2023/12/01 01:47:39;;;;;;;73.47;42.42;;;;;;;-1.46;100.00;100281.19;5084218;28;20131;-68
2023/12/01 01:50:06;;;;;;;79.95;43.03;;;;;;;-1.48;100.00;100288.16;5091760;28;20073;-68
2023/12/01 01:52:33;;;;;;;74.13;43.22;;;;;;;-1.48;100.00;100290.75;5083517;28;20447;-68
2023/12/01 01:54:58;;;;;;;76.60;42.53;;;;;;;-1.50;100.00;100292.53;5089551;28;20064;-67
2023/12/01 01:57:25;;;;;;;83.55;44.53;;;;;;;-1.55;100.00;100297.81;5083520;28;20035;-67
2023/12/01 01:59:50;;;;;;;84.95;44.92;;;;;;;-1.51;100.00;100289.03;5087182;28;20024;-68
2023/12/01 02:02:16;;;;;;;87.50;46.90;;;;;;;-1.53;100.00;100290.81;5092907;28;20088;-67
2023/12/01 02:04:41;;;;;;;82.18;43.40;;;;;;;-1.54;100.00;100290.84;5088217;28;20143;-67
2023/12/01 02:07:08;;;;;;;80.20;43.47;;;;;;;-1.56;100.00;100296.06;5079372;28;20028;-67
2023/12/01 02:09:37;;;;;;;82.75;42.83;;;;;;;-1.54;100.00;100293.47;5083966;28;20115;-67
2023/12/01 02:12:03;;;;;;;84.95;45.83;;;;;;;-1.52;100.00;100300.38;5084378;28;20028;-67
2023/12/01 02:14:28;;;;;;;85.72;45.95;;;;;;;-1.45;100.00;100298.56;5099566;28;20023;-67
2023/12/01 02:16:54;;;;;;;85.95;46.35;;;;;;;-1.46;100.00;100301.19;5090509;28;20311;-67
2023/12/01 02:19:19;;;;;;;86.72;46.47;;;;;;;-1.51;100.00;100291.66;5093954;28;20045;-67
2023/12/01 02:21:45;;;;;;;85.70;46.08;;;;;;;-1.42;100.00;100302.88;5088202;28;20161;-68
2023/12/01 02:24:11;;;;;;;89.72;48.85;;;;;;;-1.46;100.00;100299.47;5090264;28;20035;-67
2023/12/01 02:26:37;;;;;;;93.60;50.20;;;;;;;-1.43;100.00;100301.16;5096856;28;20028;-68
2023/12/01 02:29:03;;;;;;;91.13;49.05;;;;;;;-1.48;100.00;100298.59;5103539;28;20057;-67
2023/12/01 02:31:29;;;;;;;85.85;46.88;;;;;;;-1.40;100.00;100303.75;5085454;28;20024;-68
2023/12/01 02:33:55;;;;;;;90.65;47.45;;;;;;;-1.42;100.00;100297.66;5096592;28;20545;-68
2023/12/01 02:36:21;;;;;;;90.20;48.28;;;;;;;-1.44;100.00;100309.88;5092502;28;20042;-68
2023/12/01 02:38:46;;;;;;;89.25;47.80;;;;;;;-1.43;100.00;100294.19;5090893;27;20515;-68
2023/12/01 02:41:12;;;;;;;90.47;50.45;;;;;;;-1.53;100.00;100276.91;5093756;27;20090;-68
2023/12/01 02:43:37;;;;;;;89.55;48.85;;;;;;;-1.49;100.00;100285.56;5086040;27;20060;-66
2023/12/01 02:46:03;;;;;;;91.05;48.50;;;;;;;-1.43;100.00;100301.16;5086291;28;20398;-67
2023/12/01 02:48:28;;;;;;;95.72;50.88;;;;;;;-1.42;100.00;100300.28;5085040;28;20027;-67
2023/12/01 02:50:53;;;;;;;89.43;48.63;;;;;;;-1.42;100.00;100298.56;5089153;28;20418;-67
2023/12/01 02:53:19;;;;;;;90.88;48.88;;;;;;;-1.44;100.00;100296.81;5089903;27;20026;-66
2023/12/01 02:55:45;;;;;;;96.47;51.05;;;;;;;-1.43;100.00;100295.94;5090325;28;20051;-66
2023/12/01 02:58:11;;;;;;;99.55;51.47;;;;;;;-1.42;100.00;100298.56;5088317;28;20504;-67
2023/12/01 03:00:36;;;;;;;94.05;50.05;;;;;;;-1.40;100.00;100295.91;5085044;28;20118;-67
2023/12/01 03:03:02;;;;;;;101.55;51.60;;;;;;;-1.39;100.00;100302.84;5091975;27;20104;-66
2023/12/01 03:05:27;;;;;;;93.72;51.65;;;;;;;-1.41;100.00;100300.28;5084255;28;20115;-66
2023/12/01 03:07:52;;;;;;;99.30;52.22;;;;;;;-1.41;100.00;100297.66;5085707;28;20532;-67
2023/12/01 03:10:18;;;;;;;98.28;50.83;;;;;;;-1.38;100.00;100299.34;5090081;28;20091;-67
2023/12/01 03:12:44;;;;;;;100.90;55.10;;;;;;;-1.42;100.00;100297.66;5098839;27;20035;-67
2023/12/01 03:15:14;;;;;;;100.68;55.03;;;;;;;-1.40;100.00;100294.16;5095839;28;20307;-66
2023/12/01 03:17:40;;;;;;;106.03;55.97;;;;;;;-1.38;100.00;100301.97;5084037;28;20506;-67
2023/12/01 03:20:10;;;;;;;105.50;54.58;;;;;;;-1.42;100.00;100303.78;5091826;28;20631;-67
2023/12/01 03:22:39;;;;;;;99.55;52.38;;;;;;;-1.44;100.00;100308.13;5089255;27;20035;-67
2023/12/01 03:25:11;;;;;;;102.78;54.50;;;;;;;-1.41;100.00;100309.84;5084805;28;20480;-68
2023/12/01 03:27:44;;;;;;;104.75;56.05;;;;;;;-1.45;100.00;100313.38;5087703;28;20027;-67
2023/12/01 03:30:14;;;;;;;106.85;53.95;;;;;;;-1.45;100.00;100309.00;5092288;28;20035;-67
2023/12/01 03:32:48;;;;;;;105.13;54.70;;;;;;;-1.41;100.00;100317.69;5087496;28;20043;-67
2023/12/01 03:35:15;;;;;;;105.53;55.20;;;;;;;-1.49;100.00;100311.69;5092070;28;20067;-67
2023/12/01 03:37:41;;;;;;;99.90;53.58;;;;;;;-1.52;100.00;100313.41;5085506;28;20563;-67
2023/12/01 03:40:08;;;;;;;106.80;54.97;;;;;;;-1.56;100.00;100319.56;5083308;28;20105;-67
2023/12/01 03:42:35;;;;;;;114.93;56.75;;;;;;;-1.59;100.00;100316.09;5092580;28;20535;-67
2023/12/01 03:45:00;;;;;;;112.45;56.92;;;;;;;-1.65;100.00;100318.78;5091665;28;20043;-67
2023/12/01 03:47:26;;;;;;;113.05;57.45;;;;;;;-1.61;100.00;100325.69;5095197;28;20016;-67
2023/12/01 03:49:51;;;;;;;115.97;57.38;;;;;;;-1.62;100.00;100319.63;5092579;28;20487;-67
2023/12/01 03:52:16;;;;;;;118.82;57.08;;;;;;;-1.64;100.00;100337.03;5090974;27;20502;-67
2023/12/01 03:54:42;;;;;;;121.20;58.35;;;;;;;-1.61;100.00;100328.31;5083951;28;20552;-67
2023/12/01 03:57:08;;;;;;;117.22;57.03;;;;;;;-1.63;100.00;100327.44;5083486;28;20111;-67
2023/12/01 03:59:33;;;;;;;119.45;57.97;;;;;;;-1.64;100.00;100331.81;5089979;28;20274;-68
2023/12/01 04:02:00;;;;;;;115.15;54.70;;;;;;;-1.62;100.00;100334.41;5086205;27;20035;-68
2023/12/01 04:04:25;;;;;;;106.00;51.00;;;;;;;-1.67;100.00;100338.78;5083283;28;20032;-68
2023/12/01 04:06:51;;;;;;;109.90;51.47;;;;;;;-1.72;100.00;100341.44;5085778;28;20050;-68
2023/12/01 04:09:16;;;;;;;108.72;50.83;;;;;;;-1.79;100.00;100342.41;5088211;28;20024;-68
2023/12/01 04:11:42;;;;;;;99.07;47.67;;;;;;;-1.84;100.00;100350.28;5093195;28;20568;-68
2023/12/01 04:14:07;;;;;;;101.38;48.28;;;;;;;-1.84;100.00;100354.59;5084894;28;20032;-68
2023/12/01 04:16:32;;;;;;;104.32;49.20;;;;;;;-1.92;100.00;100345.97;5090791;28;20024;-68
2023/12/01 04:18:58;;;;;;;104.00;50.63;;;;;;;-1.92;100.00;100361.59;5091841;28;20119;-68
2023/12/01 04:21:23;;;;;;;100.63;49.90;;;;;;;-1.95;100.00;100359.06;5084953;28;20311;-68
2023/12/01 04:23:48;;;;;;;103.95;51.50;;;;;;;-1.94;100.00;100358.16;5089356;28;20047;-68
2023/12/01 04:26:14;;;;;;;100.93;49.75;;;;;;;-1.89;100.00;100358.97;5085701;28;20482;-68
2023/12/01 04:28:39;;;;;;;98.90;48.88;;;;;;;-1.93;100.00;100365.09;5096811;28;20036;-69
2023/12/01 04:31:08;;;;;;;95.53;47.60;;;;;;;-1.94;100.00;100366.00;5083436;28;20382;-68
2023/12/01 04:33:33;;;;;;;91.00;45.97;;;;;;;-1.94;100.00;100369.47;5083729;28;20541;-68
2023/12/01 04:35:59;;;;;;;97.70;49.25;;;;;;;-1.95;100.00;100366.88;5094829;27;20102;-69
2023/12/01 04:38:24;;;;;;;102.00;49.72;;;;;;;-1.88;100.00;100376.34;5094970;28;20086;-68
2023/12/01 04:40:54;;;;;;;100.80;50.67;;;;;;;-1.88;100.00;100376.34;5092473;28;20098;-68
2023/12/01 04:43:19;;;;;;;105.10;51.08;;;;;;;-1.88;100.00;100364.22;5086913;28;20028;-68
2023/12/01 04:45:45;;;;;;;96.30;47.92;;;;;;;-1.90;100.00;100372.91;5091550;28;20028;-68
2023/12/01 04:48:10;;;;;;;98.80;50.03;;;;;;;-1.90;100.00;100379.00;5084657;28;20020;-68
2023/12/01 04:50:45;;;;;;;92.93;46.30;;;;;;;-1.86;100.00;100380.69;5090853;28;20105;-68
2023/12/01 04:53:10;;;;;;;93.20;47.58;;;;;;;-1.84;100.00;100385.91;5092923;28;20023;-68
2023/12/01 04:55:35;;;;;;;90.93;47.20;;;;;;;-1.81;100.00;100378.06;5091317;28;20028;-67
2023/12/01 04:58:01;;;;;;;92.57;48.00;;;;;;;-1.82;100.00;100379.81;5092911;28;20032;-68
2023/12/01 05:00:27;;;;;;;85.00;45.88;;;;;;;-1.81;100.00;100378.91;5083518;28;20057;-68
2023/12/01 05:02:53;;;;;;;91.28;46.85;;;;;;;-1.80;100.00;100379.78;5100131;27;20031;-68
2023/12/01 05:05:24;;;;;;;84.25;44.67;;;;;;;-1.87;100.00;100378.13;5087228;28;20107;-68
2023/12/01 05:07:51;;;;;;;80.97;43.90;;;;;;;-1.83;100.00;100388.50;5093229;28;20031;-68
2023/12/01 05:10:22;;;;;;;88.03;44.55;;;;;;;-1.83;100.00;100398.09;5083525;28;20178;-68
2023/12/01 05:12:49;;;;;;;83.78;45.45;;;;;;;-1.81;100.00;100399.78;5081785;28;20036;-67
2023/12/01 05:15:16;;;;;;;86.10;44.40;;;;;;;-1.81;100.00;100396.31;5090778;28;20555;-67
2023/12/01 05:17:43;;;;;;;86.85;44.67;;;;;;;-1.78;100.00;100398.91;5087913;28;20458;-67
2023/12/01 05:20:15;;;;;;;84.13;44.78;;;;;;;-1.79;100.00;100408.47;5089305;28;20023;-67
2023/12/01 05:22:48;;;;;;;81.40;44.38;;;;;;;-1.83;100.00;100406.78;5084523;28;20122;-66
2023/12/01 05:25:15;;;;;;;82.63;44.95;;;;;;;-1.82;100.00;100407.63;5089186;28;20023;-67
2023/12/01 05:27:49;;;;;;;77.05;42.90;;;;;;;-1.81;100.00;100414.56;5095905;28;20062;-67
2023/12/01 05:30:17;;;;;;;82.93;45.40;;;;;;;-1.81;100.00;100411.97;5088336;28;20028;-67
2023/12/01 05:32:44;;;;;;;81.90;45.63;;;;;;;-1.78;100.00;100418.03;5082347;28;20024;-67
2023/12/01 05:35:10;;;;;;;75.72;43.13;;;;;;;-1.79;100.00;100420.66;5086820;28;20231;-67
2023/12/01 05:37:38;;;;;;;72.63;41.10;;;;;;;-1.88;100.00;100413.78;5081191;28;20036;-67
2023/12/01 05:40:06;;;;;;;74.28;41.30;;;;;;;-1.80;100.00;100422.41;5082457;28;20498;-68
2023/12/01 05:42:31;;;;;;;70.45;40.25;;;;;;;-1.79;100.00;100421.53;5082458;28;20485;-68
2023/12/01 05:44:56;;;;;;;72.05;39.88;;;;;;;-1.81;100.00;100422.41;5092071;28;20027;-68
2023/12/01 05:47:22;;;;;;;66.03;38.97;;;;;;;-1.80;100.00;100432.84;5086900;28;20076;-68
2023/12/01 05:49:48;;;;;;;72.57;40.55;;;;;;;-1.81;100.00;100425.00;5092420;28;20050;-68
2023/12/01 05:52:14;;;;;;;67.15;39.70;;;;;;;-1.80;100.00;100434.56;5088701;28;20153;-68
2023/12/01 05:54:39;;;;;;;69.47;39.92;;;;;;;-1.79;100.00;100434.56;5087441;28;20127;-68
2023/12/01 05:57:07;;;;;;;69.68;39.15;;;;;;;-1.78;100.00;100432.81;5091847;28;20064;-67
2023/12/01 05:59:33;;;;;;;64.78;38.17;;;;;;;-1.77;100.00;100439.75;5096744;28;20123;-67
2023/12/01 06:01:59;;;;;;;66.18;38.65;;;;;;;-1.79;100.00;100436.31;5097708;28;20024;-66
2023/12/01 06:04:25;;;;;;;69.68;40.72;;;;;;;-1.74;100.00;100437.16;5090438;28;20028;-67
2023/12/01 06:06:51;;;;;;;69.50;38.58;;;;;;;-1.79;100.00;100438.94;5093257;28;20023;-67
2023/12/01 06:09:17;;;;;;;72.50;41.47;;;;;;;-1.79;100.00;100434.56;5091777;28;20433;-67
2023/12/01 06:11:43;;;;;;;67.70;38.35;;;;;;;-1.79;100.00;100439.78;5092069;28;20450;-67
2023/12/01 06:14:08;;;;;;;68.30;41.15;;;;;;;-1.73;100.00;100443.22;5093140;28;20105;-67
2023/12/01 06:16:37;;;;;;;66.90;39.15;;;;;;;-1.73;100.00;100451.06;5095092;28;20024;-68
2023/12/01 06:19:02;;;;;;;64.60;38.63;;;;;;;-1.71;100.00;100444.97;5094386;28;20499;-68
2023/12/01 06:21:28;;;;;;;63.38;37.10;;;;;;;-1.72;100.00;100448.41;5101128;28;20057;-68
2023/12/01 06:23:53;;;;;;;64.65;38.88;;;;;;;-1.73;100.00;100441.47;5098670;28;20028;-67
2023/12/01 06:26:18;;;;;;;58.80;35.50;;;;;;;-1.72;100.00;100443.19;5094906;28;20056;-67
2023/12/01 06:28:44;;;;;;;58.38;36.20;;;;;;;-1.75;100.00;100438.03;5096936;28;20031;-68
2023/12/01 06:31:10;;;;;;;58.95;36.25;;;;;;;-1.68;100.00;100442.31;5098069;28;20331;-67
2023/12/01 06:33:35;;;;;;;64.35;37.17;;;;;;;-1.71;100.00;100450.19;5103243;28;20119;-67
2023/12/01 06:36:00;;;;;;;60.45;36.88;;;;;;;-1.68;100.00;100447.53;5102941;27;20031;-67
2023/12/01 06:38:26;;;;;;;60.95;35.78;;;;;;;-1.66;100.00;100450.13;5087065;28;20039;-67
2023/12/01 06:40:51;;;;;;;59.88;36.50;;;;;;;-1.64;100.00;100451.84;5098488;28;20110;-69
2023/12/01 06:43:16;;;;;;;63.53;36.42;;;;;;;-1.67;100.00;100453.59;5086070;28;20079;-67
2023/12/01 06:45:42;;;;;;;56.25;33.55;;;;;;;-1.65;100.00;100460.56;5094774;28;20032;-67
2023/12/01 06:48:07;;;;;;;58.88;35.58;;;;;;;-1.62;100.00;100457.06;5084050;28;20093;-67
2023/12/01 06:50:33;;;;;;;61.15;36.00;;;;;;;-1.62;100.00;100465.75;5087483;28;20101;-66
2023/12/01 06:53:00;;;;;;;59.75;35.72;;;;;;;-1.61;100.00;100457.03;5091173;28;20103;-67
2023/12/01 06:55:25;;;;;;;61.58;35.78;;;;;;;-1.59;100.00;100463.13;5085104;28;20020;-67
2023/12/01 06:57:50;;;;;;;52.15;33.17;;;;;;;-1.62;100.00;100462.28;5083585;28;20097;-67
2023/12/01 07:00:33;;;;;;;57.55;34.42;;;;;;;-1.60;100.00;100470.97;5095022;28;20255;-67
2023/12/01 07:03:00;;;;;;;53.40;33.67;;;;;;;-1.58;100.00;100472.69;5087563;28;20028;-68
2023/12/01 07:05:27;;;;;;;56.75;34.67;;;;;;;-1.57;100.00;100469.19;5084525;28;20092;-67
2023/12/01 07:07:53;;;;;;;57.20;34.70;;;;;;;-1.53;100.00;100480.47;5090424;28;20040;-67
2023/12/01 07:10:19;;;;;;;56.72;34.10;;;;;;;-1.56;100.00;100468.31;5094960;28;20020;-67
2023/12/01 07:12:44;;;;;;;54.55;33.28;;;;;;;-1.53;100.00;100483.97;5087399;28;20034;-66
2023/12/01 07:15:12;;;;;;;53.58;32.92;;;;;;;-1.55;100.00;100479.63;5089883;28;20030;-67
2023/12/01 07:17:41;;;;;;;55.33;34.63;;;;;;;-1.49;100.00;100483.94;5091673;28;20036;-67
2023/12/01 07:20:13;;;;;;;55.30;32.17;;;;;;;-1.47;100.00;100477.81;5089024;28;20195;-68
2023/12/01 07:22:40;;;;;;;54.50;34.20;;;;;;;-1.50;100.00;100477.88;5097630;28;20059;-67
2023/12/01 07:25:10;;;;;;;56.03;33.17;;;;;;;-1.52;100.00;100482.22;5090659;27;20028;-67
2023/12/01 07:27:36;;;;;;;51.83;33.10;;;;;;;-1.49;100.00;100486.56;5090579;28;20020;-67
2023/12/01 07:30:02;;;;;;;52.75;32.70;;;;;;;-1.45;100.00;100485.66;5099470;28;20036;-67
2023/12/01 07:32:27;;;;;;;53.72;32.97;;;;;;;-1.46;100.00;100482.19;5090054;28;20028;-68
2023/12/01 07:34:53;;;;;;;55.38;33.83;;;;;;;-1.45;100.00;100485.66;5086471;28;20035;-67
2023/12/01 07:37:19;;;;;;;52.28;32.30;;;;;;;-1.42;100.00;100483.00;5088662;27;20061;-68
2023/12/01 07:39:44;;;;;;;57.35;33.42;;;;;;;-1.41;100.00;100484.75;5100804;28;20151;-67
2023/12/01 07:42:10;;;;;;;52.88;31.80;;;;;;;-1.39;100.00;100482.97;5086137;28;20466;-68
2023/12/01 07:44:35;;;;;;;54.22;32.65;;;;;;;-1.41;100.00;100474.31;5091963;28;20095;-67
2023/12/01 07:47:04;;;;;;;54.63;33.22;;;;;;;-1.38;100.00;100485.59;5093825;28;20023;-67
2023/12/01 07:49:30;;;;;;;51.90;31.73;;;;;;;-1.39;100.00;100478.63;5097047;28;20417;-67
2023/12/01 07:51:55;;;;;;;51.38;31.73;;;;;;;-1.33;100.00;100477.72;5088961;28;20019;-68
2023/12/01 07:54:22;;;;;;;51.88;31.88;;;;;;;-1.33;100.00;100483.81;5083836;28;20016;-68
2023/12/01 07:56:47;;;;;;;54.53;33.35;;;;;;;-1.34;100.00;100473.34;5083888;28;20134;-68
2023/12/01 07:59:13;;;;;;;53.05;32.05;;;;;;;-1.35;100.00;100472.50;5101769;28;20332;-68
2023/12/01 08:01:38;;;;;;;54.65;31.25;;;;;;;-1.31;100.00;100473.34;5089049;28;20028;-68
2023/12/01 08:04:04;;;;;;;54.47;31.70;;;;;;;-1.30;100.00;100480.28;5092750;28;20035;-67
2023/12/01 08:06:29;;;;;;;59.00;32.42;;;;;;;-1.29;100.00;100476.81;5089306;28;20051;-67
2023/12/01 08:08:55;;;;;;;54.22;32.03;;;;;;;-1.26;100.00;100474.16;5093213;28;20077;-68
2023/12/01 08:11:20;;;;;;;54.55;32.22;;;;;;;-1.23;100.00;100483.72;5089895;28;20051;-67
2023/12/01 08:13:46;;;;;;;51.10;31.73;;;;;;;-1.24;100.00;100485.47;5093349;28;20486;-67
2023/12/01 08:16:11;;;;;;;53.45;30.73;;;;;;;-1.21;100.00;100498.53;5091578;27;20035;-67
2023/12/01 08:18:36;;;;;;;52.92;31.23;;;;;;;-1.23;100.00;100484.59;5096276;28;20130;-67
2023/12/01 08:21:02;;;;;;;48.97;29.40;;;;;;;-1.21;100.00;100489.78;5084075;28;20497;-68
2023/12/01 08:23:28;;;;;;;54.65;31.67;;;;;;;-1.20;100.00;100494.16;5091448;28;20482;-67
2023/12/01 08:25:53;;;;;;;52.40;31.80;;;;;;;-1.19;100.00;100496.75;5091484;28;20028;-67
2023/12/01 08:28:18;;;;;;;52.75;30.50;;;;;;;-1.17;100.00;100496.72;5098737;28;20015;-68
2023/12/01 08:30:44;;;;;;;53.25;31.02;;;;;;;-1.12;100.00;100502.78;5081099;28;20020;-68
2023/12/01 08:33:09;;;;;;;51.30;30.58;;;;;;;-1.14;100.00;100504.53;5097855;28;20183;-67
2023/12/01 08:35:35;;;;;;;52.28;30.52;;;;;;;-1.12;100.00;100508.88;5087344;28;20020;-68
2023/12/01 08:38:00;;;;;;;57.83;32.78;;;;;;;-1.10;100.00;100506.25;5091562;28;20085;-68
2023/12/01 08:40:26;;;;;;;55.42;33.35;;;;;;;-1.12;100.00;100508.88;5088485;28;20059;-68
2023/12/01 08:42:52;;;;;;;56.63;32.80;;;;;;;-1.13;100.00;100517.59;5086282;28;20030;-68
2023/12/01 08:45:18;;;;;;;60.20;33.30;;;;;;;-1.11;100.00;100520.19;5086340;28;20028;-68
2023/12/01 08:47:43;;;;;;;58.65;32.63;;;;;;;-1.09;100.00;100519.28;5082387;28;20042;-68
2023/12/01 08:50:10;;;;;;;54.55;32.63;;;;;;;-1.07;100.00;100522.75;5087751;28;20043;-67
2023/12/01 08:52:37;;;;;;;55.45;32.83;;;;;;;-1.08;100.00;100517.56;5086907;28;20436;-67
2023/12/01 08:55:03;;;;;;;54.58;32.58;;;;;;;-1.08;100.00;100513.19;5094154;28;20089;-68
2023/12/01 08:57:28;;;;;;;52.22;32.92;;;;;;;-1.06;100.00;100524.47;5080659;28;20081;-67
2023/12/01 08:59:53;;;;;;;56.05;33.67;;;;;;;-1.05;100.00;100523.59;5087002;28;20503;-68
2023/12/01 09:02:19;;;;;;;59.35;34.17;;;;;;;-1.05;100.00;100523.59;5087847;28;20028;-67
2023/12/01 09:04:44;;;;;;;57.65;33.65;;;;;;;-1.05;100.00;100533.19;5086599;28;20153;-68
2023/12/01 09:07:09;;;;;;;58.10;31.73;;;;;;;-1.05;100.00;100528.81;5085980;28;20107;-68
2023/12/01 09:09:35;;;;;;;57.92;32.63;;;;;;;-1.05;100.00;100528.81;5089888;28;20061;-68
2023/12/01 09:12:01;;;;;;;56.60;33.25;;;;;;;-1.03;100.00;100529.69;5083450;28;20032;-68
2023/12/01 09:14:26;;;;;;;54.95;31.45;;;;;;;-0.98;100.00;100532.25;5091523;28;20040;-68
2023/12/01 09:16:52;;;;;;;56.45;33.45;;;;;;;-0.96;100.00;100534.84;5092373;28;20542;-68
2023/12/01 09:19:17;;;;;;;56.50;32.72;;;;;;;-0.96;100.00;100542.69;5094456;28;20023;-68
2023/12/01 09:21:42;;;;;;;56.38;32.38;;;;;;;-0.97;100.00;100547.03;5096418;28;20059;-68
2023/12/01 09:24:08;;;;;;;55.80;32.60;;;;;;;-0.93;100.00;100545.28;5097351;28;20028;-67
2023/12/01 09:26:33;;;;;;;57.00;32.92;;;;;;;-0.90;100.00;100548.75;5091850;28;20116;-68
2023/12/01 09:28:58;;;;;;;55.72;30.92;;;;;;;-0.88;100.00;100547.00;5094046;28;20024;-67
2023/12/01 09:31:24;;;;;;;48.47;29.55;;;;;;;-0.85;100.00;100549.56;5092951;28;20168;-67
2023/12/01 09:33:49;;;;;;;49.22;29.45;;;;;;;-0.87;100.00;100559.16;5087541;28;20062;-68
2023/12/01 09:36:18;;;;;;;49.22;29.73;;;;;;;-0.84;100.00;100556.50;5090324;28;20020;-69
2023/12/01 09:38:44;;;;;;;47.17;28.05;;;;;;;-0.83;100.00;100558.25;5089873;28;20016;-69
2023/12/01 09:41:10;;;;;;;48.60;27.92;;;;;;;-0.79;100.00;100561.72;5090247;28;20178;-68
2023/12/01 09:43:37;;;;;;;47.08;28.45;;;;;;;-0.77;100.00;100562.56;5090372;28;20023;-67
2023/12/01 09:46:02;;;;;;;45.08;26.52;;;;;;;-0.77;100.00;100559.94;5091900;28;20573;-68
2023/12/01 09:48:33;;;;;;;43.05;26.35;;;;;;;-0.77;100.00;100563.41;5096847;28;20028;-68
2023/12/01 09:50:58;;;;;;;41.53;25.77;;;;;;;-0.74;100.00;100567.75;5089511;28;20040;-68
2023/12/01 09:53:23;;;;;;;41.70;24.92;;;;;;;-0.71;100.00;100570.38;5089792;28;20346;-67
2023/12/01 09:55:49;;;;;;;35.28;23.27;;;;;;;-0.73;100.00;100569.50;5091777;28;20055;-66
2023/12/01 09:58:15;;;;;;;41.78;24.85;;;;;;;-0.71;100.00;100575.59;5088566;28;20554;-67
2023/12/01 10:00:41;;;;;;;34.97;23.08;;;;;;;-0.66;100.00;100568.56;5093881;28;20111;-68
2023/12/01 10:03:06;;;;;;;35.42;23.50;;;;;;;-0.73;100.00;100561.66;5086166;28;20703;-70
2023/12/01 10:05:35;;;;;;;35.55;23.00;;;;;;;-0.72;100.00;100562.50;5092120;28;20028;-68
2023/12/01 10:08:01;;;;;;;34.50;23.85;;;;;;;-0.70;100.00;100561.63;5090655;28;20183;-68
2023/12/01 10:10:26;;;;;;;36.25;23.60;;;;;;;-0.66;100.00;100568.56;5094066;28;20065;-68
2023/12/01 10:12:54;;;;;;;32.92;22.17;;;;;;;-0.65;100.00;100565.06;5090402;28;20058;-70
2023/12/01 10:15:19;;;;;;;35.13;22.95;;;;;;;-0.63;100.00;100560.66;5095699;28;20028;-69
2023/12/01 10:17:45;;;;;;;36.75;23.40;;;;;;;-0.58;100.00;100558.03;5087314;28;20082;-69
2023/12/01 10:20:17;;;;;;;36.85;23.08;;;;;;;-0.57;100.00;100565.00;5087553;28;20051;-70
2023/12/01 10:22:43;;;;;;;32.63;22.52;;;;;;;-0.55;100.00;100565.81;5084526;28;20467;-68
2023/12/01 10:25:12;;;;;;;36.30;22.80;;;;;;;-0.55;100.00;100571.91;5098248;28;20034;-68
2023/12/01 10:27:39;;;;;;;33.45;22.42;;;;;;;-0.56;100.00;100566.72;5084296;28;20036;-69
2023/12/01 10:30:12;;;;;;;33.60;21.35;;;;;;;-0.55;100.00;100569.31;5089530;28;20058;-69
2023/12/01 10:32:37;;;;;;;31.05;21.73;;;;;;;-0.53;100.00;100561.47;5088342;28;20032;-72
2023/12/01 10:35:05;;;;;;;32.05;21.75;;;;;;;-0.51;100.00;100571.00;5098065;28;20028;-68
2023/12/01 10:37:30;;;;;;;33.53;21.98;;;;;;;-0.48;100.00;100567.50;5097920;27;20110;-72
2023/12/01 10:39:56;;;;;;;33.03;21.73;;;;;;;-0.46;100.00;100575.31;5088011;28;20727;-68
2023/12/01 10:42:24;;;;;;;32.78;21.40;;;;;;;-0.43;100.00;100577.91;5101898;28;20031;-69
2023/12/01 10:44:50;;;;;;;34.33;22.25;;;;;;;-0.43;100.00;100563.09;5097676;28;20068;-69
2023/12/01 10:47:16;;;;;;;32.88;21.83;;;;;;;-0.43;100.00;100562.22;5095013;27;20035;-71
2023/12/01 10:49:44;;;;;;;31.63;21.02;;;;;;;-0.44;100.00;100563.97;5097120;27;20047;-72
2023/12/01 10:52:12;;;;;;;31.67;21.58;;;;;;;-0.40;100.00;100560.44;5099195;28;20051;-71
2023/12/01 10:54:42;;;;;;;29.33;20.70;;;;;;;-0.36;100.00;100559.53;5095905;27;20076;-68